Impacts TAF Board INFO
FOR SITUATIONAL AWARENESS. NOT TO BE USED FOR FLIGHT PLANNING PURPOSES.
IDs:

KORD - Chicago/O'Hare Intl, IL, US

Issued at 1511 UTC 26 Apr 2018
Updated at 1703 UTC 26 Apr 2018
Potential Impact None Slight Moderate High
Time1651Z 26/18Z 26/19Z 26/20Z 26/21Z 26/22Z 26/23Z 27/00Z 27/01Z 27/02Z 27/03Z 27/04Z 27/05Z 27/06Z>>
Type OBS PRVL PRVL PRVL PRVL PRVL PRVL PRVL PRVL PRVL PRVL PRVL PRVL PRVL
VIS 10 >6 >6 >6 >6 >6 >6 >6 >6 >6 >6 >6 >6 >6
CIG 250 250 250 250 250 250 250 250 250 250 250 250 250 250
Cover BKN BKN BKN BKN BKN BKN BKN BKN BKN BKN BKN BKN BKN BKN
FltCat VFR VFR VFR VFR VFR VFR VFR VFR VFR VFR VFR VFR VFR VFR
WX -- -- -- -- -- -- -- -- -- -- -- -- -- --
WDir 230 210 210 210 210 210 210 150 150 150 150 150 150 150
WSpd 4 8 8 8 8 8 8 6 6 6 6 6 6 6
WGst -- -- -- -- -- -- -- -- -- -- -- -- -- --

Raw TAF
KORD 261511Z 2615/2718 VRB04KT P6SM FEW250
  FM261800 21008KT P6SM BKN250
  FM270000 15006KT P6SM BKN250
  FM270700 33012G18KT P6SM SCT020 BKN040 BKN070
  FM271000 35010KT P6SM SCT025


Raw METAR
KORD 261651Z 23004KT 10SM BKN250 14/M03 A2994 RMK AO2 SLP142 T01441033
KORD 261551Z 00000KT 10SM BKN250 14/M02 A2996 RMK AO2 SLP146 T01391022
KORD 261451Z 00000KT 10SM BKN250 12/M01 A2995 RMK AO2 SLP145 T01221011 58002

METAR Board
Radar Display
Forecast Discussion

FOR SITUATIONAL AWARENESS. NOT TO BE USED FOR FLIGHT PLANNING PURPOSES.